createdAt,value
2022-10-23T00:00:56.799Z,100999.34
2022-10-23T00:03:23.340Z,100997.59
2022-10-23T00:05:49.819Z,100995.00
2022-10-23T00:08:16.288Z,100987.28
2022-10-23T00:10:43.650Z,101003.78
2022-10-23T00:13:10.144Z,101000.25
2022-10-23T00:15:36.935Z,101002.03
2022-10-23T00:18:04.545Z,100992.41
2022-10-23T00:20:30.987Z,100993.31
2022-10-23T00:22:57.407Z,100986.38
2022-10-23T00:25:23.837Z,100993.31
2022-10-23T00:27:50.278Z,100988.13
2022-10-23T00:30:16.683Z,100980.25
2022-10-23T00:32:43.128Z,100969.81
2022-10-23T00:35:09.569Z,100972.44
2022-10-23T00:37:36.024Z,100975.91
2022-10-23T00:40:02.449Z,100973.31
2022-10-23T00:42:28.933Z,100969.81
2022-10-23T00:44:56.184Z,100973.31
2022-10-23T00:47:22.687Z,100968.94
2022-10-23T00:49:49.723Z,100966.28
2022-10-23T00:52:16.783Z,100971.47
2022-10-23T00:54:43.904Z,100960.25
2022-10-23T00:57:15.641Z,100937.00
2022-10-23T00:59:42.376Z,100949.69
2022-10-23T01:02:09.343Z,100949.72
2022-10-23T01:04:37.232Z,100950.47
2022-10-23T01:07:13.075Z,100948.72
2022-10-23T01:10:11.372Z,100936.53
2022-10-23T01:13:08.256Z,100940.03
2022-10-23T01:15:43.219Z,100931.41
2022-10-23T01:18:27.662Z,100934.00
2022-10-23T01:21:00.513Z,100925.31
2022-10-23T01:24:04.422Z,100922.69
2022-10-23T01:27:02.169Z,100917.53
2022-10-23T01:29:58.707Z,100915.94
2022-10-23T01:32:42.782Z,100873.66
2022-10-23T01:35:14.469Z,100906.38
2022-10-23T01:37:48.831Z,100845.34
2022-10-23T01:40:27.354Z,100896.06
2022-10-23T01:42:58.353Z,100903.00
2022-10-23T01:45:52.944Z,100910.88
2022-10-23T01:48:28.279Z,100895.34
2022-10-23T01:51:01.507Z,100897.91
2022-10-23T01:53:31.727Z,100896.06
2022-10-23T01:56:05.560Z,100848.75
2022-10-23T01:58:34.415Z,100875.28
2022-10-23T02:01:05.661Z,100845.22
2022-10-23T02:03:37.284Z,100882.22
2022-10-23T02:06:07.472Z,100877.84
2022-10-23T02:08:34.527Z,100864.81
2022-10-23T02:11:09.105Z,100859.63
2022-10-23T02:13:42.652Z,100861.31
2022-10-23T02:16:51.638Z,100858.72
2022-10-23T02:19:35.760Z,100839.66
2022-10-23T02:22:10.690Z,100842.09
2022-10-23T02:24:55.596Z,100826.66
2022-10-23T02:27:28.781Z,100848.19
2022-10-23T02:30:03.313Z,100840.34
2022-10-23T02:32:30.930Z,100828.25
2022-10-23T02:34:57.362Z,100826.41
2022-10-23T02:37:23.946Z,100823.78
2022-10-23T02:39:50.555Z,100812.47
2022-10-23T02:42:39.154Z,100792.66
2022-10-23T02:45:15.651Z,100763.34
2022-10-23T02:47:54.197Z,100794.19
2022-10-23T02:50:29.820Z,100795.91
2022-10-23T02:53:11.386Z,100781.25
2022-10-23T02:55:40.767Z,100774.16
2022-10-23T02:58:27.463Z,100775.03
2022-10-23T03:01:17.108Z,100760.28
2022-10-23T03:04:04.938Z,100704.47
2022-10-23T03:06:32.695Z,100723.28
2022-10-23T03:09:05.224Z,100759.34
2022-10-23T03:11:32.009Z,100748.06
2022-10-23T03:13:58.653Z,100745.41
2022-10-23T03:16:25.304Z,100738.41
2022-10-23T03:18:54.537Z,100734.97
2022-10-23T03:21:21.225Z,100733.19
2022-10-23T03:23:51.829Z,100728.81
2022-10-23T03:26:24.333Z,100719.25
2022-10-23T03:28:50.817Z,100724.47
2022-10-23T03:31:20.191Z,100732.25
2022-10-23T03:33:49.464Z,100737.44
2022-10-23T03:36:15.998Z,100728.81
2022-10-23T03:38:43.910Z,100719.16
2022-10-23T03:41:10.618Z,100718.25
2022-10-23T03:43:37.081Z,100715.66
2022-10-23T03:46:03.630Z,100701.00
2022-10-23T03:48:30.079Z,100714.72
2022-10-23T03:50:58.449Z,100705.13
2022-10-23T03:53:25.080Z,100708.66
2022-10-23T03:55:51.504Z,100704.28
2022-10-23T03:58:18.106Z,100697.25
2022-10-23T04:00:45.601Z,100682.44
2022-10-23T04:03:12.133Z,100667.63
2022-10-23T04:05:38.620Z,100650.16
2022-10-23T04:08:05.175Z,100637.13
2022-10-23T04:10:33.602Z,100661.53
2022-10-23T04:13:00.518Z,100682.38
2022-10-23T04:15:27.362Z,100686.69
2022-10-23T04:17:54.625Z,100678.00
2022-10-23T04:20:21.056Z,100661.47
2022-10-23T04:22:47.529Z,100649.28
2022-10-23T04:25:14.125Z,100620.63
2022-10-23T04:27:40.757Z,100611.88
2022-10-23T04:30:08.223Z,100620.59
2022-10-23T04:32:34.867Z,100630.16
2022-10-23T04:35:01.335Z,100616.25
2022-10-23T04:37:30.203Z,100585.84
2022-10-23T04:39:56.670Z,100586.75
2022-10-23T04:42:23.147Z,100590.13
2022-10-23T04:44:49.660Z,100583.16
2022-10-23T04:47:16.109Z,100576.19
2022-10-23T04:49:55.000Z,100574.47
2022-10-23T04:52:35.412Z,100561.50
2022-10-23T04:55:33.925Z,100559.00
2022-10-23T04:58:11.883Z,100578.22
2022-10-23T05:00:38.361Z,100579.19
2022-10-23T05:03:04.839Z,100571.38
2022-10-23T05:05:36.485Z,100554.09
2022-10-23T05:08:22.389Z,100557.50
2022-10-23T05:11:07.184Z,100533.22
2022-10-23T05:13:39.082Z,100528.03
2022-10-23T05:16:05.637Z,100536.75
2022-10-23T05:18:36.603Z,100537.59
2022-10-23T05:21:10.155Z,100520.28
2022-10-23T05:23:41.980Z,100493.63
2022-10-23T05:26:08.892Z,100530.47
2022-10-23T05:28:36.488Z,100527.88
2022-10-23T05:31:04.960Z,100486.66
2022-10-23T05:33:34.745Z,100520.94
2022-10-23T05:36:01.709Z,100508.75
2022-10-23T05:38:30.329Z,100506.22
2022-10-23T05:40:56.847Z,100506.06
2022-10-23T05:43:23.723Z,100504.31
2022-10-23T05:45:57.642Z,100503.38
2022-10-23T05:48:42.535Z,100510.31
2022-10-23T05:51:23.891Z,100497.38
2022-10-23T05:54:10.622Z,100506.81
2022-10-23T05:56:57.432Z,100495.44
2022-10-23T05:59:44.415Z,100488.47
2022-10-23T06:02:23.169Z,100490.13
2022-10-23T06:04:59.780Z,100485.66
2022-10-23T06:07:44.401Z,100481.25
2022-10-23T06:10:11.729Z,100460.34
2022-10-23T06:12:42.603Z,100454.94
2022-10-23T06:15:13.409Z,100453.19
2022-10-23T06:17:54.184Z,100454.13
2022-10-23T06:20:23.046Z,100447.81
2022-10-23T06:23:01.068Z,100442.56
2022-10-23T06:25:57.283Z,100438.94
2022-10-23T06:28:31.916Z,100430.28
2022-10-23T06:30:59.397Z,100434.44
2022-10-23T06:33:26.255Z,100425.72
2022-10-23T06:35:56.177Z,100420.59
2022-10-23T06:38:23.337Z,100426.41
2022-10-23T06:40:56.681Z,100438.56
2022-10-23T06:43:33.060Z,100428.88
2022-10-23T06:46:25.698Z,100427.06
2022-10-23T06:49:10.869Z,100420.84
2022-10-23T06:51:46.530Z,100418.22
2022-10-23T06:54:14.601Z,100419.03
2022-10-23T06:56:50.039Z,100399.09
2022-10-23T06:59:31.263Z,100406.72
2022-10-23T07:01:57.764Z,100414.50
2022-10-23T07:04:24.682Z,100411.00
2022-10-23T07:06:55.335Z,100411.06
2022-10-23T07:09:25.600Z,100412.59
2022-10-23T07:11:52.113Z,100417.84
2022-10-23T07:14:21.807Z,100421.19
2022-10-23T07:16:48.311Z,100424.59
2022-10-23T07:19:14.801Z,100415.84
2022-10-23T07:21:57.753Z,100415.75
2022-10-23T07:24:40.278Z,100410.63
2022-10-23T07:27:27.136Z,100410.50
2022-10-23T07:29:56.437Z,100418.16
2022-10-23T07:32:23.679Z,100417.25
2022-10-23T07:35:09.958Z,100401.44
2022-10-23T07:37:39.250Z,100389.19
2022-10-23T07:40:06.963Z,100382.16
2022-10-23T07:42:40.534Z,100382.16
2022-10-23T07:45:08.090Z,100367.31
2022-10-23T07:47:37.372Z,100383.75
2022-10-23T07:50:04.108Z,100394.22
2022-10-23T07:52:33.484Z,100403.78
2022-10-23T07:55:13.992Z,100431.75
2022-10-23T07:57:47.782Z,100419.94
2022-10-23T08:00:31.062Z,100445.84
2022-10-23T08:03:10.804Z,100439.91
2022-10-23T08:05:37.482Z,100422.75
2022-10-23T08:08:07.445Z,100416.75
2022-10-23T08:10:35.972Z,100404.56
2022-10-23T08:13:02.690Z,100405.56
2022-10-23T08:15:52.675Z,100416.06
2022-10-23T08:18:37.740Z,100383.69
2022-10-23T08:21:04.425Z,100400.72
2022-10-23T08:23:31.702Z,100380.84
2022-10-23T08:26:02.989Z,100390.28
2022-10-23T08:28:32.096Z,100372.16
2022-10-23T08:31:08.076Z,100380.00
2022-10-23T08:33:34.563Z,100367.13
2022-10-23T08:36:01.096Z,100373.06
2022-10-23T08:38:32.595Z,100367.78
2022-10-23T08:40:59.618Z,100359.09
2022-10-23T08:43:50.906Z,100333.94
2022-10-23T08:46:33.227Z,100326.09
2022-10-23T08:49:53.366Z,100311.34
2022-10-23T08:52:39.704Z,100278.69
2022-10-23T08:55:18.248Z,100311.38
2022-10-23T08:58:06.721Z,100315.75
2022-10-23T09:00:34.080Z,100297.41
2022-10-23T09:03:03.555Z,100257.03
2022-10-23T09:05:39.193Z,100295.66
2022-10-23T09:08:25.729Z,100268.19
2022-10-23T09:11:28.630Z,100308.59
2022-10-23T09:14:22.578Z,100303.38
2022-10-23T09:16:58.123Z,100291.97
2022-10-23T09:19:26.931Z,100294.53
2022-10-23T09:21:55.669Z,100296.25
2022-10-23T09:24:24.716Z,100304.03
2022-10-23T09:26:53.574Z,100268.34
2022-10-23T09:29:27.525Z,100306.69
2022-10-23T09:31:57.856Z,100307.50
2022-10-23T09:34:26.930Z,100296.19
2022-10-23T09:36:59.353Z,100300.56
2022-10-23T09:39:28.015Z,100274.78
2022-10-23T09:41:56.903Z,100303.13
2022-10-23T09:44:30.292Z,100297.91
2022-10-23T09:47:01.277Z,100301.31
2022-10-23T09:49:30.438Z,100299.56
2022-10-23T09:52:04.817Z,100293.41
2022-10-23T09:54:34.664Z,100264.38
2022-10-23T09:57:24.276Z,100286.47
2022-10-23T09:59:56.151Z,100299.34
2022-10-23T10:02:34.984Z,100251.22
2022-10-23T10:05:32.288Z,100253.72
2022-10-23T10:08:38.139Z,100294.91
2022-10-23T10:11:22.442Z,100295.78
2022-10-23T10:13:57.810Z,100280.06
2022-10-23T10:16:33.323Z,100287.09
2022-10-23T10:19:18.530Z,100286.97
2022-10-23T10:22:03.221Z,100282.72
2022-10-23T10:24:35.891Z,100231.97
2022-10-23T10:27:21.343Z,100289.66
2022-10-23T10:30:00.966Z,100299.16
2022-10-23T10:32:30.340Z,100297.34
2022-10-23T10:35:11.915Z,100303.41
2022-10-23T10:38:16.923Z,100296.34
2022-10-23T10:40:46.310Z,100290.94
2022-10-23T10:43:34.177Z,100267.56
2022-10-23T10:46:18.735Z,100252.53
2022-10-23T10:48:54.403Z,100234.91
2022-10-23T10:51:54.537Z,100199.69
2022-10-23T10:54:51.432Z,100181.38
2022-10-23T10:57:26.794Z,100177.28
2022-10-23T10:59:57.153Z,100197.66
2022-10-23T11:02:31.431Z,100179.34
2022-10-23T11:05:15.154Z,100204.78
2022-10-23T11:08:07.035Z,100185.25
2022-10-23T11:10:35.524Z,100167.66
2022-10-23T11:13:02.608Z,100190.47
2022-10-23T11:15:38.152Z,100193.03
2022-10-23T11:18:12.658Z,100189.16
2022-10-23T11:20:51.320Z,100183.97
2022-10-23T11:23:48.661Z,100154.91
2022-10-23T11:26:34.840Z,100188.97
2022-10-23T11:29:20.006Z,100172.34
2022-10-23T11:32:21.610Z,100160.09
2022-10-23T11:35:18.487Z,100138.19
2022-10-23T11:37:45.202Z,100149.59
2022-10-23T11:40:11.839Z,100150.50
2022-10-23T11:42:41.352Z,100143.56
2022-10-23T11:45:28.031Z,100138.47
2022-10-23T11:48:00.196Z,100139.28
2022-10-23T11:50:48.699Z,100095.41
2022-10-23T11:53:26.079Z,100120.81
2022-10-23T11:56:11.043Z,100135.53
2022-10-23T11:58:42.038Z,100100.38
2022-10-23T12:01:39.297Z,100131.97
2022-10-23T12:04:14.668Z,100123.97
2022-10-23T12:06:51.124Z,100082.78
2022-10-23T12:09:42.373Z,100115.94
2022-10-23T12:12:08.794Z,100121.91
2022-10-23T12:14:39.683Z,100112.50
2022-10-23T12:17:22.710Z,100122.44
2022-10-23T12:20:12.599Z,100110.06
2022-10-23T12:23:02.334Z,100106.19
2022-10-23T12:26:20.249Z,100095.44
2022-10-23T12:29:01.806Z,100055.41
2022-10-23T12:31:48.013Z,100070.69
2022-10-23T12:34:26.859Z,100060.50
2022-10-23T12:37:28.576Z,100054.81
2022-10-23T12:39:56.245Z,100057.09
2022-10-23T12:42:24.993Z,100044.63
2022-10-23T12:45:23.962Z,100043.25
2022-10-23T12:47:52.128Z,100047.09
2022-10-23T12:50:26.605Z,100002.00
2022-10-23T12:53:01.700Z,99984.41
2022-10-23T12:55:35.052Z,100028.81
2022-10-23T12:58:02.553Z,100017.19
2022-10-23T13:00:29.040Z,100009.09
2022-10-23T13:03:00.956Z,99998.09
2022-10-23T13:05:28.787Z,100010.50
2022-10-23T13:07:56.973Z,99998.53
2022-10-23T13:10:35.370Z,99998.88
2022-10-23T13:13:07.362Z,99975.53
2022-10-23T13:15:42.882Z,99975.59
2022-10-23T13:18:11.297Z,99975.53
2022-10-23T13:20:41.283Z,99953.47
2022-10-23T13:23:07.681Z,99975.59
2022-10-23T13:25:36.540Z,99946.00
2022-10-23T13:28:44.574Z,99941.66
2022-10-23T13:31:10.950Z,99974.28
2022-10-23T13:33:51.907Z,99971.84
2022-10-23T13:36:18.299Z,99974.47
2022-10-23T13:38:59.458Z,99969.31
2022-10-23T13:41:46.323Z,99963.97
2022-10-23T13:44:18.011Z,99952.63
2022-10-23T13:46:45.384Z,99949.09
2022-10-23T13:49:12.105Z,99948.03
2022-10-23T13:51:42.781Z,99951.34
2022-10-23T13:54:18.746Z,99919.88
2022-10-23T13:56:45.474Z,99939.72
2022-10-23T13:59:12.019Z,99923.75
2022-10-23T14:01:38.861Z,99932.72
2022-10-23T14:04:06.861Z,99927.13
2022-10-23T14:06:33.840Z,99924.22
2022-10-23T14:09:00.327Z,99923.06
2022-10-23T14:11:26.924Z,99906.50
2022-10-23T14:13:53.352Z,99907.00
2022-10-23T14:16:20.345Z,99905.41
2022-10-23T14:18:47.267Z,99899.97
2022-10-23T14:21:16.003Z,99862.19
2022-10-23T14:23:42.522Z,99895.41
2022-10-23T14:26:11.824Z,99858.63
2022-10-23T14:28:38.462Z,99882.56
2022-10-23T14:31:14.287Z,99859.56
2022-10-23T14:33:41.813Z,99885.81
2022-10-23T14:36:09.034Z,99879.03
2022-10-23T14:38:36.371Z,99882.56
2022-10-23T14:41:09.066Z,99870.53
2022-10-23T14:43:35.527Z,99880.63
2022-10-23T14:46:17.595Z,99843.03
2022-10-23T14:48:46.192Z,99874.38
2022-10-23T14:51:22.796Z,99875.16
2022-10-23T14:53:56.456Z,99868.34
2022-10-23T14:56:26.128Z,99876.03
2022-10-23T14:58:52.595Z,99872.69
2022-10-23T15:01:19.165Z,99859.88
2022-10-23T15:03:45.757Z,99848.75
2022-10-23T15:06:16.066Z,99834.84
2022-10-23T15:08:44.783Z,99807.50
2022-10-23T15:11:12.643Z,99806.72
2022-10-23T15:13:39.338Z,99826.72
2022-10-23T15:16:08.236Z,99795.06
2022-10-23T15:18:35.505Z,99822.13
2022-10-23T15:21:03.318Z,99816.94
2022-10-23T15:23:29.775Z,99800.47
2022-10-23T15:26:01.025Z,99797.94
2022-10-23T15:28:28.043Z,99804.97
2022-10-23T15:30:55.275Z,99806.91
2022-10-23T15:33:23.149Z,99798.56
2022-10-23T15:35:50.227Z,99799.78
2022-10-23T15:38:16.672Z,99806.81
2022-10-23T15:40:43.592Z,99807.81
2022-10-23T15:43:13.054Z,99794.00
2022-10-23T15:45:40.034Z,99789.75
2022-10-23T15:48:06.956Z,99774.09
2022-10-23T15:50:33.991Z,99775.06
2022-10-23T15:53:00.531Z,99782.34
2022-10-23T15:55:27.209Z,99775.56
2022-10-23T15:57:54.279Z,99759.13
2022-10-23T16:00:20.921Z,99750.63
2022-10-23T16:02:47.743Z,99764.69
2022-10-23T16:05:14.455Z,99757.19
2022-10-23T16:07:40.862Z,99758.88
2022-10-23T16:10:07.691Z,99751.09
2022-10-23T16:12:34.104Z,99744.38
2022-10-23T16:15:00.559Z,99718.75
2022-10-23T16:17:26.949Z,99746.13
2022-10-23T16:19:53.481Z,99753.31
2022-10-23T16:22:19.895Z,99743.13
2022-10-23T16:24:46.375Z,99742.34
2022-10-23T16:27:12.759Z,99734.66
2022-10-23T16:29:39.201Z,99731.31
2022-10-23T16:32:05.680Z,99718.44
2022-10-23T16:34:32.134Z,99710.78
2022-10-23T16:36:58.578Z,99696.19
2022-10-23T16:39:43.672Z,99695.41
2022-10-23T16:42:28.634Z,99691.25
2022-10-23T16:45:05.436Z,99671.34
2022-10-23T16:47:32.553Z,99668.88
2022-10-23T16:49:59.395Z,99675.09
2022-10-23T16:52:27.214Z,99674.34
2022-10-23T16:54:53.709Z,99686.88
2022-10-23T16:57:20.369Z,99703.41
2022-10-23T16:59:46.768Z,99722.66
2022-10-23T17:02:13.861Z,99716.63
2022-10-23T17:04:40.408Z,99714.91
2022-10-23T17:07:07.094Z,99707.97
2022-10-23T17:09:33.575Z,99694.25
2022-10-23T17:12:00.037Z,99702.22
2022-10-23T17:14:26.758Z,99720.59
2022-10-23T17:16:53.232Z,99738.78
2022-10-23T17:22:08.905Z,99830.88
2022-10-23T17:24:35.298Z,99838.38
2022-10-23T17:27:01.798Z,99840.78
2022-10-23T17:29:28.210Z,99831.91
2022-10-23T17:31:54.691Z,99838.47
2022-10-23T17:34:23.166Z,99832.81
2022-10-23T17:36:53.059Z,99812.16
2022-10-23T17:39:22.906Z,99791.41
2022-10-23T17:41:49.529Z,99780.91
2022-10-23T17:44:16.443Z,99787.56
2022-10-23T17:46:43.013Z,99783.88
2022-10-23T17:49:10.766Z,99782.81
2022-10-23T17:51:37.581Z,99779.78
2022-10-23T17:54:07.207Z,99743.66
2022-10-23T17:56:35.980Z,99738.88
2022-10-23T17:59:06.538Z,99761.16
2022-10-23T18:01:33.292Z,99752.66
2022-10-23T18:04:02.347Z,99699.69
2022-10-23T18:06:33.323Z,99725.38
2022-10-23T18:09:01.333Z,99721.97
2022-10-23T18:11:30.675Z,99700.50
2022-10-23T18:16:26.835Z,99685.78
2022-10-23T18:18:53.715Z,99687.53
2022-10-23T18:21:22.231Z,99637.97
2022-10-23T18:23:49.232Z,99674.56
2022-10-23T18:26:21.741Z,99695.38
2022-10-23T18:28:49.801Z,99697.94
2022-10-23T18:31:17.002Z,99696.28
2022-10-23T18:33:43.613Z,99692.19
2022-10-23T18:36:20.830Z,99700.66
2022-10-23T18:38:48.334Z,99703.38
2022-10-23T18:41:18.604Z,99699.91
2022-10-23T18:43:45.788Z,99717.94
2022-10-23T18:46:13.529Z,99713.59
2022-10-23T18:48:40.404Z,99704.09
2022-10-23T18:51:19.203Z,99708.69
2022-10-23T18:53:45.701Z,99705.91
2022-10-23T18:56:13.578Z,99714.66
2022-10-23T18:58:40.209Z,99713.72
2022-10-23T19:01:06.829Z,99713.78
2022-10-23T19:03:33.388Z,99710.34
2022-10-23T19:05:59.862Z,99706.16
2022-10-23T19:08:26.369Z,99704.38
2022-10-23T19:10:53.620Z,99707.97
2022-10-23T19:13:20.061Z,99706.22
2022-10-23T19:15:46.477Z,99703.75
2022-10-23T19:18:12.919Z,99712.38
2022-10-23T19:20:43.062Z,99668.88
2022-10-23T19:23:12.725Z,99708.94
2022-10-23T19:25:43.365Z,99703.00
2022-10-23T19:28:09.821Z,99685.13
2022-10-23T19:30:36.661Z,99693.53
2022-10-23T19:33:03.140Z,99692.75
2022-10-23T19:35:29.621Z,99696.03
2022-10-23T19:37:56.051Z,99703.88
2022-10-23T19:40:22.543Z,99703.84
2022-10-23T19:42:48.915Z,99701.25
2022-10-23T19:45:15.749Z,99703.75
2022-10-23T19:47:42.666Z,99698.50
2022-10-23T19:50:10.339Z,99693.25
2022-10-23T19:52:37.313Z,99691.56
2022-10-23T19:55:05.851Z,99629.09
2022-10-23T19:57:33.151Z,99706.84
2022-10-23T20:00:00.371Z,99692.13
2022-10-23T20:02:27.609Z,99699.72
2022-10-23T20:04:54.109Z,99692.75
2022-10-23T20:07:20.597Z,99687.59
2022-10-23T20:09:47.026Z,99701.25
2022-10-23T20:12:13.463Z,99689.94
2022-10-23T20:14:39.874Z,99666.75
2022-10-23T20:17:06.571Z,99690.53
2022-10-23T20:19:32.985Z,99700.03
2022-10-23T20:21:59.399Z,99702.59
2022-10-23T20:24:25.817Z,99693.84
2022-10-23T20:26:55.067Z,99684.56
2022-10-23T20:29:22.683Z,99691.16
2022-10-23T20:31:49.158Z,99686.78
2022-10-23T20:34:15.577Z,99684.28
2022-10-23T20:36:47.271Z,99686.66
2022-10-23T20:39:17.400Z,99679.75
2022-10-23T20:41:43.983Z,99681.44
2022-10-23T20:44:14.081Z,99649.09
2022-10-23T20:46:40.824Z,99677.09
2022-10-23T20:49:07.532Z,99671.84
2022-10-23T20:51:34.150Z,99658.91
2022-10-23T20:54:00.538Z,99656.41
2022-10-23T20:56:29.989Z,99671.03
2022-10-23T20:59:01.679Z,99663.16
2022-10-23T21:01:29.300Z,99651.19
2022-10-23T21:03:57.244Z,99660.63
2022-10-23T21:06:25.280Z,99655.38
2022-10-23T21:08:56.718Z,99621.22
2022-10-23T21:11:23.229Z,99656.97
2022-10-23T21:13:49.696Z,99649.97
2022-10-23T21:16:28.732Z,99644.75
2022-10-23T21:18:56.676Z,99635.97
2022-10-23T21:21:24.092Z,99635.78
2022-10-23T21:23:52.475Z,99628.84
2022-10-23T21:26:21.703Z,99588.69
2022-10-23T21:28:56.196Z,99627.81
2022-10-23T21:31:27.956Z,99627.59
2022-10-23T21:33:54.368Z,99612.03
2022-10-23T21:36:23.021Z,99619.63
2022-10-23T21:38:50.989Z,99614.31
2022-10-23T21:41:30.583Z,99570.63
2022-10-23T21:44:00.409Z,99599.38
2022-10-23T21:46:29.359Z,99601.84
2022-10-23T21:48:55.970Z,99580.28
2022-10-23T21:51:25.191Z,99585.22
2022-10-23T21:53:53.469Z,99585.91
2022-10-23T21:56:27.100Z,99576.56
2022-10-23T21:58:53.813Z,99584.09
2022-10-23T22:01:20.688Z,99568.69
2022-10-23T22:03:47.406Z,99572.69
2022-10-23T22:06:19.981Z,99542.84
2022-10-23T22:08:46.790Z,99557.81
2022-10-23T22:11:14.234Z,99563.00
2022-10-23T22:13:42.050Z,99549.38
2022-10-23T22:16:08.935Z,99563.13
2022-10-23T22:18:36.968Z,99569.97
2022-10-23T22:21:08.769Z,99548.91
2022-10-23T22:23:35.685Z,99570.00
2022-10-23T22:26:22.012Z,99561.34
2022-10-23T22:28:49.373Z,99551.81
2022-10-23T22:31:17.687Z,99564.84
2022-10-23T22:33:44.157Z,99551.03
2022-10-23T22:36:10.608Z,99555.31
2022-10-23T22:38:37.346Z,99551.81
2022-10-23T22:41:04.437Z,99554.38
2022-10-23T22:43:31.144Z,99552.72
2022-10-23T22:46:10.620Z,99561.47
2022-10-23T22:48:37.698Z,99548.47
2022-10-23T22:51:07.301Z,99549.44
2022-10-23T22:53:35.438Z,99549.34
2022-10-23T22:56:06.238Z,99561.34
2022-10-23T22:58:32.749Z,99553.63
2022-10-23T23:01:21.432Z,99554.38
2022-10-23T23:03:48.716Z,99547.41
2022-10-23T23:06:15.360Z,99533.47
2022-10-23T23:08:42.835Z,99531.94
2022-10-23T23:11:12.608Z,99537.81
2022-10-23T23:13:40.589Z,99523.03
2022-10-23T23:16:07.632Z,99506.56
2022-10-23T23:18:35.023Z,99506.56
2022-10-23T23:21:02.915Z,99503.09
2022-10-23T23:23:29.597Z,99502.34
2022-10-23T23:25:56.554Z,99508.53
2022-10-23T23:28:23.012Z,99502.44
2022-10-23T23:30:49.445Z,99518.84
2022-10-23T23:33:17.475Z,99525.75
2022-10-23T23:35:45.775Z,99520.75
2022-10-23T23:38:13.125Z,99518.16
2022-10-23T23:40:39.906Z,99513.75
2022-10-23T23:43:06.628Z,99511.25
2022-10-23T23:45:33.099Z,99516.41
2022-10-23T23:47:59.629Z,99513.78
2022-10-23T23:50:26.246Z,99504.22
2022-10-23T23:52:52.681Z,99487.25
2022-10-23T23:55:19.236Z,99502.53
2022-10-23T23:57:46.061Z,99487.88
